Time;durP1;ratioP1;P1;durP2;ratioP2;P2;SDS_P1;SDS_P2;PMS_P1;PMS_P2;Temp;Humidity;BMP_temperature;BMP_pressure;BME280_temperature;BME280_humidity;BME280_pressure;Samples;Min_cycle;Max_cycle;Signal;HPM_P1;HPM_P2
2022/05/07 00:00:52;;;;;;;16.85;7.32;;;;;;;8.70;100.00;99455.13;4341802;33;20095;-82
2022/05/07 00:18:56;;;;;;;15.93;8.50;;;;;;;8.50;100.00;99455.34;4348781;33;20008;-82
2022/05/07 00:21:22;;;;;;;12.73;6.78;;;;;;;8.45;100.00;99447.16;4348803;33;20105;-82
2022/05/07 00:23:48;;;;;;;9.77;7.75;;;;;;;8.39;100.00;99438.09;4335161;33;20036;-83
2022/05/07 00:26:15;;;;;;;15.00;6.97;;;;;;;8.19;100.00;99408.84;4347723;33;20048;-83
2022/05/07 00:28:41;;;;;;;12.90;6.97;;;;;;;8.18;100.00;99409.88;4346896;33;20107;-83
2022/05/07 00:31:08;;;;;;;13.20;7.37;;;;;;;8.19;100.00;99408.84;4334480;33;20058;-83
2022/05/07 00:33:34;;;;;;;14.32;7.07;;;;;;;8.44;100.00;99449.03;4348589;33;20065;-84
2022/05/07 00:36:01;;;;;;;22.77;7.20;;;;;;;8.42;100.00;99440.34;4347146;33;20329;-84
2022/05/07 00:38:27;;;;;;;19.23;7.35;;;;;;;8.43;100.00;99438.50;4335386;33;20044;-84
2022/05/07 00:40:55;;;;;;;27.17;8.73;;;;;;;8.34;100.00;99430.75;4347660;33;20036;-84
2022/05/07 00:43:21;;;;;;;13.75;7.82;;;;;;;8.10;100.00;99391.41;4333927;33;20024;-83
2022/05/07 00:45:49;;;;;;;21.25;6.75;;;;;;;8.13;100.00;99396.34;4335144;33;20439;-84
2022/05/07 00:48:16;;;;;;;10.52;6.20;;;;;;;8.34;100.00;99430.75;4348459;33;20070;-84
2022/05/07 00:53:31;;;;;;;24.58;6.87;;;;;;;8.16;100.00;99390.53;4348355;33;20028;-83
2022/05/07 00:55:58;;;;;;;15.10;7.72;;;;;;;8.41;100.00;99429.84;4356452;33;20349;-83
2022/05/07 00:58:24;;;;;;;13.93;7.10;;;;;;;8.36;100.00;99428.66;4363105;32;20355;-83
2022/05/07 01:00:53;;;;;;;13.23;6.70;;;;;;;8.07;100.00;99387.31;4362892;32;20091;-84
2022/05/07 01:03:20;;;;;;;12.10;6.80;;;;;;;8.33;100.00;99431.81;4363024;32;20377;-85
2022/05/07 01:05:47;;;;;;;19.98;7.85;;;;;;;8.11;100.00;99382.34;4349543;32;20049;-84
2022/05/07 01:08:14;;;;;;;23.65;7.15;;;;;;;8.16;100.00;99382.47;4362927;32;20044;-85
2022/05/07 01:10:42;;;;;;;21.33;8.98;;;;;;;8.42;100.00;99416.19;4363058;32;20073;-84
2022/05/07 01:13:09;;;;;;;24.75;10.93;;;;;;;8.28;100.00;99377.16;4361886;32;20024;-85
2022/05/07 01:15:43;;;;;;;26.42;11.80;;;;;;;8.62;100.00;99424.03;4349681;32;20036;-84
2022/05/07 01:18:12;;;;;;;13.05;8.45;;;;;;;8.55;100.00;99425.97;4362103;32;20013;-86
2022/05/07 01:20:39;;;;;;;17.23;7.05;;;;;;;8.44;100.00;99424.06;4363209;32;20425;-84
2022/05/07 01:23:06;;;;;;;10.38;6.72;;;;;;;8.46;100.00;99401.31;4360588;32;20027;-85
2022/05/07 01:25:32;;;;;;;11.73;6.25;;;;;;;8.61;100.00;99379.44;4361063;32;20108;-85
2022/05/07 01:28:00;;;;;;;17.77;9.07;;;;;;;9.19;100.00;99425.47;4360955;32;20048;-85
2022/05/07 01:30:27;;;;;;;10.57;6.28;;;;;;;9.33;100.00;99426.91;4362640;32;20074;-85
2022/05/07 01:32:53;;;;;;;19.12;7.43;;;;;;;9.44;100.00;99428.81;4361139;32;20339;-87
2022/05/07 01:35:20;;;;;;;18.67;8.15;;;;;;;9.55;100.00;99434.41;4362904;32;20457;-89
2022/05/07 01:37:48;;;;;;;21.87;9.40;;;;;;;9.44;100.00;99422.59;4348979;33;20036;-86
2022/05/07 01:40:14;;;;;;;16.77;8.93;;;;;;;9.32;100.00;99417.22;4347931;33;20057;-85
2022/05/07 01:42:42;;;;;;;36.95;9.88;;;;;;;9.33;100.00;99431.47;4362776;32;20091;-85
2022/05/07 01:45:09;;;;;;;22.55;10.80;;;;;;;9.21;100.00;99424.19;4348931;32;20032;-85
2022/05/07 01:50:26;;;;;;;17.83;8.00;;;;;;;8.60;100.00;99369.75;4362496;32;20034;-83
2022/05/07 01:52:53;;;;;;;20.17;8.35;;;;;;;8.67;100.00;99417.97;4362407;32;20036;-83
2022/05/07 01:55:20;;;;;;;18.70;8.77;;;;;;;8.24;100.00;99368.75;4361753;32;20039;-84
2022/05/07 01:57:47;;;;;;;12.45;8.15;;;;;;;8.60;100.00;99412.72;4361360;32;20066;-84
2022/05/07 02:00:14;;;;;;;16.15;7.75;;;;;;;8.58;100.00;99422.84;4361132;32;20040;-84
2022/05/07 02:02:42;;;;;;;19.27;9.55;;;;;;;8.48;100.00;99425.25;4362500;32;20047;-85
2022/05/07 02:05:09;;;;;;;14.25;7.30;;;;;;;8.41;100.00;99413.75;4371913;32;20087;-82
2022/05/07 02:07:35;;;;;;;28.02;8.25;;;;;;;7.95;100.00;99363.13;4363551;32;20058;-83
2022/05/07 02:10:02;;;;;;;20.08;8.45;;;;;;;8.28;100.00;99415.56;4363145;32;20083;-83
2022/05/07 02:12:30;;;;;;;13.20;6.35;;;;;;;8.23;100.00;99407.34;4363636;32;20039;-84
2022/05/07 02:14:57;;;;;;;13.38;7.90;;;;;;;8.33;100.00;99402.28;4363704;32;20102;-83
2022/05/07 02:17:24;;;;;;;18.02;7.57;;;;;;;8.34;100.00;99365.53;4378097;32;20090;-83
2022/05/07 02:19:50;;;;;;;12.37;6.68;;;;;;;8.37;100.00;99370.44;4377670;32;20055;-83
2022/05/07 02:22:17;;;;;;;14.30;8.80;;;;;;;8.56;100.00;99411.50;4378158;32;20028;-85
2022/05/07 02:24:44;;;;;;;16.23;7.40;;;;;;;8.43;100.00;99409.81;4377780;32;20095;-81
2022/05/07 02:27:19;;;;;;;20.08;7.60;;;;;;;8.35;100.00;99416.28;4377520;32;20043;-83
2022/05/07 02:29:45;;;;;;;13.82;6.93;;;;;;;8.30;100.00;99413.47;4378717;32;20083;-84
2022/05/07 02:32:13;;;;;;;12.68;6.40;;;;;;;8.23;100.00;99411.91;4378668;32;20062;-83
2022/05/07 02:34:42;;;;;;;29.08;7.80;;;;;;;8.09;100.00;99405.87;4378115;32;20078;-84
2022/05/07 02:37:10;;;;;;;14.13;7.10;;;;;;;8.05;100.00;99404.69;4377309;32;20065;-87
2022/05/07 02:39:37;;;;;;;17.52;7.22;;;;;;;8.02;100.00;99408.63;4377331;32;20040;-87
2022/05/07 02:44:50;;;;;;;10.63;6.62;;;;;;;7.71;100.00;99364.84;4361842;32;20041;-83
2022/05/07 02:47:17;;;;;;;13.55;7.22;;;;;;;8.02;100.00;99413.19;4360964;32;20061;-84
2022/05/07 02:49:44;;;;;;;15.65;6.85;;;;;;;8.02;100.00;99413.19;4361567;32;20087;-85
2022/05/07 02:52:12;;;;;;;17.08;6.70;;;;;;;7.93;100.00;99392.03;4361648;32;20319;-84
2022/05/07 02:54:38;;;;;;;20.73;7.30;;;;;;;8.30;100.00;99416.16;4374833;32;20070;-83
2022/05/07 02:57:05;;;;;;;16.98;7.28;;;;;;;8.50;100.00;99421.31;4377691;32;20012;-84
2022/05/07 02:59:32;;;;;;;12.32;6.95;;;;;;;8.68;100.00;99425.81;4362777;32;20388;-84
2022/05/07 03:01:59;;;;;;;12.95;6.20;;;;;;;9.00;100.00;99422.03;4361661;32;20077;-84
2022/05/07 03:04:26;;;;;;;18.08;5.68;;;;;;;8.94;100.00;99386.19;4360492;32;20069;-84
2022/05/07 03:06:53;;;;;;;13.50;5.82;;;;;;;9.45;100.00;99432.31;4346044;33;20353;-84
2022/05/07 03:09:20;;;;;;;12.32;5.65;;;;;;;9.55;100.00;99426.34;4359854;32;20052;-84
2022/05/07 03:11:46;;;;;;;11.50;5.95;;;;;;;9.61;100.00;99418.16;4347845;32;20032;-85
2022/05/07 03:14:15;;;;;;;12.30;6.70;;;;;;;9.73;100.00;99430.78;4361636;32;20061;-86
2022/05/07 03:16:42;;;;;;;13.10;7.50;;;;;;;9.82;100.00;99446.31;4347844;32;20083;-86
2022/05/07 03:19:08;;;;;;;13.00;6.32;;;;;;;9.84;100.00;99426.47;4359796;32;20171;-86
2022/05/07 03:21:34;;;;;;;10.07;6.37;;;;;;;9.91;100.00;99432.56;4347511;33;20373;-87
2022/05/07 03:24:01;;;;;;;15.38;7.75;;;;;;;9.90;100.00;99433.59;4361569;32;20044;-87
2022/05/07 03:26:28;;;;;;;12.30;7.70;;;;;;;9.85;100.00;99439.66;4361712;32;20066;-89
2022/05/07 03:28:54;;;;;;;13.57;8.32;;;;;;;9.54;100.00;99440.81;4360715;32;20332;-88
2022/05/07 03:31:21;;;;;;;17.05;8.00;;;;;;;9.24;100.00;99439.06;4361461;32;20043;-85
2022/05/07 03:33:48;;;;;;;12.45;7.90;;;;;;;9.12;100.00;99440.88;4347830;32;20031;-88
2022/05/07 03:36:19;;;;;;;28.67;8.95;;;;;;;8.92;100.00;99442.00;4361231;32;20062;-84
2022/05/07 03:38:48;;;;;;;17.27;8.00;;;;;;;8.70;100.00;99407.59;4359831;32;20020;-86
2022/05/07 03:41:15;;;;;;;14.30;7.35;;;;;;;8.96;100.00;99453.91;4360310;32;20058;-89
2022/05/07 03:43:42;;;;;;;15.27;8.50;;;;;;;8.91;100.00;99445.72;4358843;32;20055;-88
2022/05/07 03:46:09;;;;;;;16.50;7.50;;;;;;;9.11;100.00;99458.03;4361240;32;20418;-88
2022/05/07 03:48:36;;;;;;;15.88;7.55;;;;;;;9.11;100.00;99433.88;4361254;32;20039;-88
2022/05/07 03:51:03;;;;;;;13.62;7.03;;;;;;;8.63;100.00;99352.38;4359590;32;20077;-84
2022/05/07 03:53:31;;;;;;;18.02;6.93;;;;;;;9.24;100.00;99421.06;4347204;33;20047;-85
2022/05/07 03:56:00;;;;;;;16.25;7.18;;;;;;;9.32;100.00;99436.03;4345931;33;20459;-93
2022/05/07 03:58:29;;;;;;;16.50;7.85;;;;;;;9.55;100.00;99461.28;4360822;33;20376;-86
2022/05/07 04:01:04;;;;;;;14.77;7.05;;;;;;;9.65;100.00;99472.28;4350178;33;20035;-87
2022/05/07 04:03:32;;;;;;;18.77;7.40;;;;;;;9.63;100.00;99471.69;4361425;33;20047;-86
2022/05/07 04:05:59;;;;;;;11.00;7.53;;;;;;;9.45;100.00;99435.00;4361082;33;20058;-91
2022/05/07 04:08:26;;;;;;;16.62;6.87;;;;;;;9.70;100.00;99471.59;4361423;33;20062;-86
2022/05/07 04:10:53;;;;;;;14.35;7.55;;;;;;;9.73;100.00;99480.03;4348397;33;20376;-86
2022/05/07 04:13:21;;;;;;;12.85;8.00;;;;;;;9.64;100.00;99459.91;4362866;33;20035;-93
2022/05/07 04:15:49;;;;;;;17.90;7.37;;;;;;;9.77;100.00;99475.00;4363148;33;20044;-93
2022/05/07 04:18:16;;;;;;;19.27;8.02;;;;;;;9.81;100.00;99476.97;4360639;33;20040;-86
2022/05/07 04:20:43;;;;;;;25.77;9.30;;;;;;;9.88;100.00;99492.19;4361072;33;20061;-85
2022/05/07 04:23:10;;;;;;;16.83;8.25;;;;;;;9.81;100.00;99470.75;4346797;33;20176;-85
2022/05/07 04:25:38;;;;;;;14.60;8.35;;;;;;;9.92;100.00;99482.59;4345066;33;20070;-84
2022/05/07 04:28:04;;;;;;;18.42;8.55;;;;;;;9.91;100.00;99484.47;4360114;33;20454;-82
2022/05/07 04:30:31;;;;;;;17.58;8.25;;;;;;;9.89;100.00;99488.44;4347369;33;20171;-82
2022/05/07 04:32:58;;;;;;;19.23;8.45;;;;;;;9.98;100.00;99487.03;4360505;33;20043;-82
2022/05/07 04:35:26;;;;;;;18.30;8.73;;;;;;;10.02;100.00;99504.34;4360643;33;20040;-80
2022/05/07 04:37:55;;;;;;;15.05;8.43;;;;;;;10.03;100.00;99494.41;4363476;33;20048;-81
2022/05/07 04:40:22;;;;;;;19.85;8.07;;;;;;;9.96;100.00;99481.06;4367268;33;20110;-83
2022/05/07 04:42:48;;;;;;;15.45;8.35;;;;;;;9.86;100.00;99464.69;4363473;33;20157;-85
2022/05/07 04:45:15;;;;;;;16.92;8.15;;;;;;;10.13;100.00;99500.84;4363126;33;20054;-84
2022/05/07 04:47:42;;;;;;;18.35;9.00;;;;;;;9.65;100.00;99423.88;4362791;33;20117;-82
2022/05/07 04:50:11;;;;;;;16.87;8.27;;;;;;;10.17;100.00;99503.88;4362364;33;20044;-83
2022/05/07 04:52:38;;;;;;;14.80;7.60;;;;;;;10.16;100.00;99492.28;4368679;33;20095;-85
2022/05/07 04:55:05;;;;;;;18.50;8.48;;;;;;;10.28;100.00;99497.66;4366530;33;20444;-85
2022/05/07 04:57:32;;;;;;;16.15;8.48;;;;;;;10.28;100.00;99491.47;4362606;33;20097;-81
2022/05/07 05:00:00;;;;;;;17.98;9.18;;;;;;;10.35;100.00;99503.78;4360221;32;20039;-82
2022/05/07 05:02:32;;;;;;;22.45;8.88;;;;;;;10.40;100.00;99508.41;4362904;32;20077;-88
2022/05/07 05:05:00;;;;;;;12.32;7.78;;;;;;;10.40;100.00;99508.41;4349742;32;20325;-82
2022/05/07 05:07:27;;;;;;;18.52;8.30;;;;;;;10.46;100.00;99502.09;4361389;32;20044;-81
2022/05/07 05:09:54;;;;;;;38.88;9.80;;;;;;;10.54;100.00;99506.28;4362734;32;20069;-80
2022/05/07 05:12:22;;;;;;;20.27;8.02;;;;;;;10.40;100.00;99468.03;4363063;32;20040;-81
2022/05/07 05:15:01;;;;;;;20.05;7.37;;;;;;;10.45;100.00;99465.47;4361381;32;20347;-81
2022/05/07 05:17:34;;;;;;;12.82;6.20;;;;;;;10.55;100.00;99470.25;4349937;32;20407;-81
2022/05/07 05:20:04;;;;;;;12.07;6.25;;;;;;;10.95;100.00;99517.88;4362769;32;20017;-80
2022/05/07 05:22:31;;;;;;;14.45;6.55;;;;;;;10.97;100.00;99509.56;4362478;32;20052;-80
2022/05/07 05:25:04;;;;;;;9.50;5.85;;;;;;;11.07;100.00;99515.97;4362240;32;20061;-82
2022/05/07 05:27:31;;;;;;;10.93;5.82;;;;;;;11.06;100.00;99486.56;4361669;32;20036;-81
2022/05/07 05:29:58;;;;;;;11.95;5.62;;;;;;;10.88;100.00;99442.59;4362731;32;20054;-81
2022/05/07 05:32:24;;;;;;;10.38;5.55;;;;;;;11.15;100.00;99473.50;4362520;32;20058;-82
2022/05/07 05:34:54;;;;;;;7.65;4.85;;;;;;;11.54;100.00;99509.50;4361722;32;20044;-84
2022/05/07 05:37:23;;;;;;;7.32;3.60;;;;;;;11.41;100.00;99478.28;4361853;32;20020;-79
2022/05/07 05:39:50;;;;;;;8.80;4.03;;;;;;;11.47;100.00;99476.47;4361133;32;20065;-81
2022/05/07 05:42:16;;;;;;;7.78;3.92;;;;;;;11.58;100.00;99478.31;4347972;33;20048;-81
2022/05/07 05:44:43;;;;;;;5.40;3.58;;;;;;;11.68;100.00;99476.81;4361095;32;20032;-73
2022/05/07 05:47:10;;;;;;;6.65;3.58;;;;;;;11.96;100.00;99506.41;4360968;32;20094;-74
2022/05/07 05:49:37;;;;;;;13.02;3.30;;;;;;;12.09;100.00;99515.22;4361937;32;20441;-73
2022/05/07 05:52:06;;;;;;;7.35;3.03;;;;;;;12.04;100.00;99485.47;4361249;32;20057;-73
2022/05/07 05:54:33;;;;;;;3.97;2.35;;;;;;;12.43;100.00;99521.41;4361952;32;20101;-74
2022/05/07 05:57:00;;;;;;;1.80;1.58;;;;;;;12.32;100.00;99482.63;4348751;32;20368;-73
2022/05/07 05:59:27;;;;;;;4.80;1.98;;;;;;;12.74;100.00;99524.47;4348619;32;20027;-74
2022/05/07 06:01:54;;;;;;;1.60;1.48;;;;;;;12.83;100.00;99519.47;4348733;32;20024;-74
2022/05/07 06:04:22;;;;;;;1.00;0.90;;;;;;;12.94;100.00;99515.81;4360935;32;20047;-75
2022/05/07 06:06:48;;;;;;;0.70;0.70;;;;;;;12.83;100.00;99484.31;4362085;32;20031;-81
2022/05/07 06:09:14;;;;;;;1.00;1.00;;;;;;;13.22;100.00;99527.44;4362038;32;20043;-81
2022/05/07 06:11:41;;;;;;;2.37;1.12;;;;;;;13.05;100.00;99501.31;4360807;32;20043;-83
2022/05/07 06:14:08;;;;;;;5.32;0.93;;;;;;;12.84;100.00;99440.00;4361939;32;20039;-82
2022/05/07 06:16:35;;;;;;;0.90;0.90;;;;;;;13.23;100.00;99502.03;4350196;32;20343;-82
2022/05/07 06:19:05;;;;;;;1.95;0.65;;;;;;;13.52;100.00;99526.13;4346126;33;20369;-81
2022/05/07 06:21:32;;;;;;;3.80;1.20;;;;;;;13.61;100.00;99535.44;4347068;33;20041;-81
2022/05/07 06:27:28;;;;;;;0.90;0.90;;;;;;;13.58;100.00;99515.09;4346363;33;20058;-85
2022/05/07 06:29:33;;;;;;;1.73;1.58;;;;;;;13.75;100.00;99520.37;4361868;32;20066;-82
2022/05/07 06:32:00;;;;;;;3.17;1.00;;;;;;;13.76;100.00;99530.13;4360911;32;20040;-84
2022/05/07 06:34:26;;;;;;;1.15;1.10;;;;;;;13.75;100.00;99520.37;4361469;32;20422;-84
2022/05/07 06:36:54;;;;;;;1.33;1.23;;;;;;;13.70;100.00;99489.75;4361551;32;20070;-81
2022/05/07 06:39:22;;;;;;;1.55;1.37;;;;;;;13.92;100.00;99524.84;4361506;32;20083;-79
2022/05/07 06:41:50;;;;;;;2.42;1.42;;;;;;;13.98;100.00;99534.63;4348185;32;20028;-89
2022/05/07 06:46:50;;;;;;;2.05;1.23;;;;;;;14.01;100.00;99531.41;4361474;32;20038;-83
2022/05/07 06:49:18;;;;;;;2.55;1.25;;;;;;;13.98;100.00;99518.38;4360951;32;20069;-82
2022/05/07 06:51:46;;;;;;;0.88;0.88;;;;;;;13.97;100.00;99505.91;4360525;32;20040;-84
2022/05/07 06:54:13;;;;;;;2.12;1.12;;;;;;;14.14;100.00;99533.66;4361372;32;20417;-84
2022/05/07 06:56:40;;;;;;;1.27;1.17;;;;;;;14.23;100.00;99535.87;4346673;33;20341;-86
2022/05/07 06:59:08;;;;;;;1.10;1.00;;;;;;;14.27;100.00;99531.56;4347732;32;20437;-87
2022/05/07 07:01:34;;;;;;;0.80;0.80;;;;;;;14.31;100.00;99538.06;4348681;32;20044;-86
2022/05/07 07:04:01;;;;;;;0.90;0.90;;;;;;;14.07;100.00;99499.75;4361925;32;20032;-85
2022/05/07 07:06:27;;;;;;;1.52;0.90;;;;;;;14.39;100.00;99529.47;4361532;32;20031;-84
2022/05/07 07:08:54;;;;;;;1.15;1.00;;;;;;;14.43;100.00;99536.00;4369587;32;20072;-85
2022/05/07 07:11:20;;;;;;;1.23;1.00;;;;;;;14.30;100.00;99512.87;4368340;32;20107;-84
2022/05/07 07:13:47;;;;;;;6.37;1.00;;;;;;;14.66;100.00;99558.34;4361270;32;20062;-85
2022/05/07 07:16:14;;;;;;;0.95;0.80;;;;;;;14.57;100.00;99513.81;4349477;32;20089;-85
2022/05/07 07:18:40;;;;;;;0.82;0.82;;;;;;;14.56;100.00;99514.91;4354479;33;20107;-79
2022/05/07 07:21:06;;;;;;;3.33;1.30;;;;;;;14.70;100.00;99540.50;4362519;32;20066;-81
2022/05/07 07:23:33;;;;;;;2.20;0.88;;;;;;;14.74;100.00;99547.00;4360836;32;20056;-81
2022/05/07 07:25:59;;;;;;;4.05;1.25;;;;;;;14.74;100.00;99538.06;4360929;32;20061;-81
2022/05/07 07:28:26;;;;;;;5.00;0.90;;;;;;;14.77;100.00;99541.03;4346563;33;20065;-80
2022/05/07 07:30:52;;;;;;;1.27;1.05;;;;;;;14.58;100.00;99510.03;4361103;32;20090;-83
2022/05/07 07:33:19;;;;;;;2.03;0.90;;;;;;;14.84;100.00;99532.69;4359585;32;20066;-83
2022/05/07 07:35:45;;;;;;;8.68;1.10;;;;;;;14.86;100.00;99531.34;4361199;32;20385;-82
2022/05/07 07:38:12;;;;;;;3.97;1.00;;;;;;;14.61;100.00;99490.56;4360873;32;20083;-81
2022/05/07 07:40:39;;;;;;;6.20;0.90;;;;;;;14.87;100.00;99535.69;4359310;32;20077;-81
2022/05/07 07:43:05;;;;;;;3.28;1.15;;;;;;;14.93;100.00;99538.41;4347564;32;20053;-81
2022/05/07 07:48:17;;;;;;;3.30;1.35;;;;;;;15.24;100.00;99545.53;4360858;32;20019;-79
2022/05/07 07:50:46;;;;;;;0.85;0.85;;;;;;;15.30;100.00;99542.84;4347229;32;20383;-81
2022/05/07 07:53:14;;;;;;;1.02;1.02;;;;;;;15.35;100.00;99540.12;4360341;32;20503;-83
2022/05/07 07:55:40;;;;;;;2.97;1.35;;;;;;;15.32;100.00;99543.41;4358977;32;20073;-82
2022/05/07 07:58:09;;;;;;;3.72;0.90;;;;;;;15.39;100.00;99535.81;4346059;33;20028;-83
2022/05/07 08:00:36;;;;;;;1.17;1.08;;;;;;;15.35;100.00;99534.69;4359890;33;20039;-82
2022/05/07 08:03:12;;;;;;;1.20;1.17;;;;;;;15.16;100.00;99510.81;4360232;33;20381;-82
2022/05/07 08:05:39;;;;;;;1.83;1.30;;;;;;;15.38;100.00;99558.59;4347474;33;20450;-82
2022/05/07 08:13:41;;;;;;;1.48;1.25;;;;;;;15.18;100.00;99476.09;4359422;33;20020;-83
2022/05/07 08:16:08;;;;;;;1.12;1.12;;;;;;;15.66;100.00;99534.75;4359766;33;20455;-79
2022/05/07 08:18:35;;;;;;;6.20;1.33;;;;;;;15.64;100.00;99515.22;4347008;33;20425;-82
2022/05/07 08:21:07;;;;;;;13.40;1.90;;;;;;;15.90;100.00;99525.00;4359091;33;20044;-81
2022/05/07 08:23:33;;;;;;;1.35;1.20;;;;;;;16.03;100.00;99528.25;4347397;33;20085;-81
2022/05/07 08:26:02;;;;;;;9.85;5.30;;;;;;;16.05;100.00;99520.63;4360906;33;20036;-81
2022/05/07 08:28:30;;;;;;;3.60;1.50;;;;;;;16.08;100.00;99525.50;4359325;33;20040;-81
2022/05/07 08:30:57;;;;;;;1.65;1.50;;;;;;;16.06;100.00;99517.66;4360074;33;20039;-80
2022/05/07 08:33:24;;;;;;;8.95;1.20;;;;;;;15.90;100.00;99497.03;4358395;33;20040;-80
2022/05/07 08:35:51;;;;;;;5.37;1.80;;;;;;;15.90;100.00;99497.03;4347272;33;20036;-79
2022/05/07 08:38:21;;;;;;;9.85;1.20;;;;;;;15.75;100.00;99476.13;4363701;32;20040;-77
2022/05/07 08:40:48;;;;;;;1.73;1.10;;;;;;;16.13;100.00;99539.09;4362541;32;20163;-82
2022/05/07 08:43:16;;;;;;;8.77;1.15;;;;;;;16.18;100.00;99533.66;4362995;32;20066;-83
2022/05/07 08:45:44;;;;;;;5.18;1.05;;;;;;;16.22;100.00;99533.94;4363927;32;20070;-77
2022/05/07 08:48:11;;;;;;;2.17;1.10;;;;;;;16.00;100.00;99497.00;4356468;33;20091;-81
2022/05/07 08:50:39;;;;;;;2.85;1.12;;;;;;;15.97;100.00;99492.13;4378505;32;20059;-82
2022/05/07 08:53:06;;;;;;;1.65;1.20;;;;;;;15.53;100.00;99422.13;4366572;32;20063;-79
2022/05/07 08:55:32;;;;;;;2.55;1.00;;;;;;;16.12;100.00;99532.03;4375666;32;20103;-77
2022/05/07 08:58:00;;;;;;;0.95;0.90;;;;;;;16.00;100.00;99528.78;4360540;32;20083;-76
2022/05/07 09:00:27;;;;;;;1.45;1.35;;;;;;;16.04;100.00;99527.97;4376600;32;20103;-79
2022/05/07 09:02:57;;;;;;;1.23;1.17;;;;;;;15.95;100.00;99495.09;4379489;32;20113;-79
2022/05/07 09:05:37;;;;;;;2.78;2.00;;;;;;;16.37;100.00;99524.91;4378485;32;20078;-80
2022/05/07 09:08:07;;;;;;;1.33;1.23;;;;;;;16.28;100.00;99528.19;4378778;32;20039;-78
2022/05/07 09:10:35;;;;;;;6.07;1.20;;;;;;;16.43;100.00;99521.09;4379509;32;20119;-79
2022/05/07 09:13:08;;;;;;;3.28;0.90;;;;;;;16.64;100.00;99532.72;4379209;32;20123;-81
2022/05/07 09:15:57;;;;;;;0.98;0.95;;;;;;;16.66;100.00;99525.91;4349974;32;20057;-81
2022/05/07 09:18:26;;;;;;;1.85;1.08;;;;;;;16.66;100.00;99525.91;4349637;32;20072;-82
2022/05/07 09:21:23;;;;;;;4.45;1.20;;;;;;;16.66;100.00;99531.34;4347913;33;20459;-79
2022/05/07 09:24:03;;;;;;;5.82;1.40;;;;;;;16.79;100.00;99531.84;4362680;32;20012;-85
2022/05/07 09:26:39;;;;;;;0.98;0.98;;;;;;;16.70;100.00;99532.44;4361915;32;20036;-80
2022/05/07 09:29:11;;;;;;;2.42;1.42;;;;;;;16.56;100.00;99492.50;4363097;32;20045;-83
2022/05/07 09:31:43;;;;;;;1.30;1.00;;;;;;;16.84;100.00;99520.94;4362627;32;20389;-83
2022/05/07 09:37:23;;;;;;;2.12;1.40;;;;;;;16.97;100.00;99514.13;4362877;32;20058;-86
2022/05/07 09:39:51;;;;;;;1.65;1.15;;;;;;;17.04;100.00;99526.31;4363120;32;20046;-83
2022/05/07 09:42:22;;;;;;;8.68;1.20;;;;;;;17.10;100.00;99502.59;4364619;32;20044;-83
2022/05/07 09:44:48;;;;;;;3.20;1.20;;;;;;;17.06;100.00;99480.59;4381652;32;20110;-82
2022/05/07 09:47:15;;;;;;;4.07;1.30;;;;;;;17.28;100.00;99514.75;4377047;32;20391;-83
2022/05/07 09:52:32;;;;;;;1.42;1.00;;;;;;;17.31;100.00;99510.63;4375826;32;20035;-81
2022/05/07 09:57:44;;;;;;;3.60;1.08;;;;;;;17.39;100.00;99505.44;4377315;32;20035;-73
2022/05/07 10:00:13;;;;;;;1.35;1.27;;;;;;;17.36;100.00;99506.00;4376743;32;20113;-73
2022/05/07 10:02:45;;;;;;;4.12;1.00;;;;;;;17.00;100.00;99475.47;4376996;32;20437;-73
2022/05/07 10:05:46;;;;;;;7.68;0.90;;;;;;;17.32;100.00;99499.47;4362562;32;20041;-73
2022/05/07 10:08:32;;;;;;;7.03;1.48;;;;;;;17.46;100.00;99491.50;4376534;32;20100;-74
2022/05/07 10:11:01;;;;;;;1.12;1.12;;;;;;;17.75;99.82;99494.22;4376919;32;20011;-75
2022/05/07 10:13:28;;;;;;;1.35;1.15;;;;;;;17.56;97.96;99468.81;4362367;32;20361;-75
2022/05/07 10:16:02;;;;;;;1.08;1.00;;;;;;;17.65;98.80;99499.78;4375986;32;20027;-74
2022/05/07 10:18:38;;;;;;;1.50;1.37;;;;;;;17.39;98.97;99461.88;4362452;32;20028;-74
2022/05/07 10:21:11;;;;;;;0.95;0.95;;;;;;;17.81;100.00;99488.75;4375724;32;20410;-76
2022/05/07 10:23:52;;;;;;;1.52;1.50;;;;;;;17.82;96.46;99495.81;4375346;32;20028;-74
2022/05/07 10:26:20;;;;;;;2.08;1.20;;;;;;;17.73;96.36;99482.03;4346949;33;20012;-74
2022/05/07 10:28:47;;;;;;;3.17;1.23;;;;;;;17.68;97.78;99491.03;4346693;33;20039;-73
2022/05/07 10:31:22;;;;;;;2.00;1.30;;;;;;;17.88;97.18;99471.00;4345471;33;20071;-75
2022/05/07 10:33:50;;;;;;;4.62;1.50;;;;;;;18.37;96.53;99484.69;4345831;33;20032;-74
2022/05/07 10:36:18;;;;;;;4.32;1.60;;;;;;;18.51;92.16;99491.84;4345170;33;20036;-73
2022/05/07 10:38:46;;;;;;;3.75;1.30;;;;;;;18.20;89.60;99463.31;4346799;33;20036;-73
2022/05/07 10:41:14;;;;;;;1.35;1.25;;;;;;;18.41;90.04;99485.69;4346970;33;20436;-73
2022/05/07 10:44:03;;;;;;;2.28;1.30;;;;;;;18.41;89.17;99492.00;4345592;33;20028;-75
2022/05/07 10:46:42;;;;;;;2.05;1.27;;;;;;;18.13;88.33;99486.28;4346644;33;20043;-74
2022/05/07 10:49:09;;;;;;;1.50;1.10;;;;;;;17.99;91.10;99479.88;4345404;33;20016;-74
2022/05/07 10:51:58;;;;;;;2.20;1.40;;;;;;;18.01;90.20;99482.31;4345028;33;20094;-74
2022/05/07 10:54:26;;;;;;;6.22;1.37;;;;;;;17.99;90.72;99444.47;4359321;32;20102;-74
2022/05/07 10:56:58;;;;;;;1.80;1.10;;;;;;;18.33;87.02;99446.25;4331752;33;20071;-73
2022/05/07 10:59:27;;;;;;;1.87;1.08;;;;;;;18.91;87.22;99449.91;4353243;32;20131;-73
2022/05/07 11:02:05;;;;;;;3.85;1.23;;;;;;;19.51;87.26;99463.72;4346580;33;20024;-74
2022/05/07 11:04:41;;;;;;;3.30;1.02;;;;;;;19.55;85.42;99481.13;4346708;33;20041;-74
2022/05/07 11:07:08;;;;;;;1.10;1.10;;;;;;;19.90;78.63;99465.28;4333527;33;20024;-74
2022/05/07 11:09:35;;;;;;;1.75;1.62;;;;;;;19.67;76.98;99461.53;4333034;33;20036;-73
2022/05/07 11:12:02;;;;;;;1.17;1.17;;;;;;;19.62;79.94;99477.22;4333190;33;20107;-73
2022/05/07 11:14:30;;;;;;;3.78;1.00;;;;;;;19.54;78.10;99478.69;4344829;33;20495;-74
2022/05/07 11:17:00;;;;;;;3.92;1.27;;;;;;;19.07;80.95;99470.44;4346209;33;20351;-74
2022/05/07 11:19:31;;;;;;;1.30;1.20;;;;;;;19.13;81.60;99441.12;4346507;33;20160;-74
2022/05/07 11:22:00;;;;;;;3.90;0.95;;;;;;;19.25;80.74;99468.78;4333087;33;20050;-74
2022/05/07 11:24:31;;;;;;;2.17;1.62;;;;;;;18.93;81.73;99432.13;4333148;33;20365;-74
2022/05/07 11:27:00;;;;;;;8.27;1.43;;;;;;;19.86;77.77;99430.66;4332725;33;20020;-73
2022/05/07 11:29:27;;;;;;;3.97;1.58;;;;;;;20.90;67.65;99430.19;4332531;33;20036;-74
2022/05/07 11:32:04;;;;;;;2.20;1.30;;;;;;;21.81;63.61;99452.94;4346734;33;20083;-74
2022/05/07 11:34:37;;;;;;;1.98;1.20;;;;;;;21.59;58.86;99339.53;4456535;27;20162;-76
2022/05/07 11:37:19;;;;;;;1.48;1.37;;;;;;;22.64;61.62;99457.78;4353362;32;20055;-76
2022/05/07 11:39:55;;;;;;;12.32;1.60;;;;;;;21.49;63.14;99463.88;4366848;32;20387;-74
2022/05/07 11:42:35;;;;;;;5.90;1.60;;;;;;;20.89;68.89;99453.22;4355427;32;20065;-73
2022/05/07 11:45:33;;;;;;;3.80;1.62;;;;;;;19.87;75.44;99449.47;4365463;32;20034;-74
2022/05/07 11:48:11;;;;;;;4.78;1.23;;;;;;;19.48;80.44;99447.13;4365160;32;20498;-74
2022/05/07 11:50:41;;;;;;;5.35;1.33;;;;;;;19.36;84.18;99450.34;4370951;32;20065;-74
2022/05/07 11:53:12;;;;;;;1.85;1.35;;;;;;;19.21;82.20;99449.47;4358386;32;20047;-74
2022/05/07 11:55:40;;;;;;;1.40;1.30;;;;;;;18.65;84.72;99395.69;4358054;32;20468;-75
2022/05/07 11:58:18;;;;;;;3.53;1.40;;;;;;;18.65;86.06;99440.16;4368067;32;20089;-73
2022/05/07 12:00:58;;;;;;;1.12;1.00;;;;;;;18.52;90.70;99422.59;4368264;32;20055;-82
2022/05/07 12:03:27;;;;;;;4.20;1.60;;;;;;;18.49;90.19;99450.44;4363845;32;20036;-75
2022/05/07 12:05:58;;;;;;;2.28;1.27;;;;;;;18.34;91.37;99409.72;4371035;32;20428;-75
2022/05/07 12:08:31;;;;;;;9.00;2.00;;;;;;;18.63;91.11;99438.81;4370229;32;20072;-74
2022/05/07 12:10:59;;;;;;;1.23;1.12;;;;;;;18.69;88.39;99437.63;4369829;32;20530;-77
2022/05/07 12:13:26;;;;;;;10.43;1.25;;;;;;;18.76;88.04;99437.25;4369218;32;20554;-75
2022/05/07 12:18:48;;;;;;;1.70;1.42;;;;;;;18.76;86.23;99399.09;4370034;32;20383;-81
2022/05/07 12:21:15;;;;;;;2.03;1.17;;;;;;;19.11;87.66;99433.22;4374231;32;20077;-74
2022/05/07 12:31:53;;;;;;;2.87;1.52;;;;;;;19.25;83.65;99427.84;4377840;32;20101;-73